createdAt,value
2018-07-23T00:02:18.671Z,23.00
2018-07-23T00:04:46.341Z,28.00
2018-07-23T00:07:15.657Z,21.60
2018-07-23T00:09:43.635Z,22.40
2018-07-23T00:12:11.303Z,22.00
2018-07-23T00:14:38.945Z,25.20
2018-07-23T00:17:06.587Z,23.80
2018-07-23T00:19:34.459Z,22.20
2018-07-23T00:22:02.903Z,23.60
2018-07-23T00:24:31.354Z,22.20
2018-07-23T00:26:59.627Z,18.20
2018-07-23T00:29:27.596Z,21.40
2018-07-23T00:31:56.020Z,26.80
2018-07-23T00:34:24.642Z,23.80
2018-07-23T00:36:52.487Z,27.00
2018-07-23T00:39:20.540Z,23.60
2018-07-23T00:41:48.166Z,27.00
2018-07-23T00:44:17.083Z,25.20
2018-07-23T00:46:44.755Z,26.00
2018-07-23T00:49:12.692Z,27.00
2018-07-23T00:51:40.321Z,25.80
2018-07-23T00:54:07.971Z,27.20
2018-07-23T00:56:35.953Z,24.40
2018-07-23T00:59:03.616Z,25.80
2018-07-23T01:01:31.225Z,25.60
2018-07-23T01:03:58.860Z,25.20
2018-07-23T01:06:27.015Z,23.60
2018-07-23T01:08:54.671Z,18.00
2018-07-23T01:11:22.299Z,29.40
2018-07-23T01:13:49.945Z,25.00
2018-07-23T01:16:19.081Z,29.40
2018-07-23T01:18:46.719Z,27.20
2018-07-23T01:21:14.311Z,26.60
2018-07-23T01:23:42.109Z,26.40
2018-07-23T01:26:09.739Z,27.60
2018-07-23T01:28:38.015Z,22.80
2018-07-23T01:31:06.123Z,21.60
2018-07-23T01:33:33.772Z,18.80
2018-07-23T01:36:01.393Z,24.40
2018-07-23T01:38:29.020Z,25.20
2018-07-23T01:40:57.652Z,24.40
2018-07-23T01:43:25.305Z,21.80
2018-07-23T01:45:52.942Z,24.40
2018-07-23T01:48:20.834Z,27.20
2018-07-23T01:50:48.455Z,24.60
2018-07-23T01:53:16.092Z,22.80
2018-07-23T01:55:43.703Z,24.20
2018-07-23T01:58:11.600Z,23.80
2018-07-23T02:00:39.209Z,27.00
2018-07-23T02:03:06.861Z,23.80
2018-07-23T02:05:34.480Z,25.00
2018-07-23T02:08:02.997Z,24.00
2018-07-23T02:10:31.608Z,24.80
2018-07-23T02:12:59.218Z,25.00
2018-07-23T02:15:26.843Z,25.20
2018-07-23T02:17:54.762Z,26.20
2018-07-23T02:20:22.455Z,17.40
2018-07-23T02:22:50.080Z,24.60
2018-07-23T02:25:17.735Z,25.80
2018-07-23T02:27:45.343Z,25.80
2018-07-23T02:30:13.956Z,24.40
2018-07-23T02:32:41.600Z,25.00
2018-07-23T02:35:09.532Z,24.00
2018-07-23T02:37:37.181Z,24.20
2018-07-23T02:40:04.784Z,24.20
2018-07-23T02:42:32.402Z,21.20
2018-07-23T02:45:00.468Z,24.40
2018-07-23T02:47:28.827Z,23.40
2018-07-23T02:49:56.494Z,25.40
2018-07-23T02:52:24.120Z,24.60
2018-07-23T02:54:52.079Z,28.80
2018-07-23T02:57:19.695Z,27.20
2018-07-23T02:59:47.354Z,26.00
2018-07-23T03:02:15.006Z,27.40
2018-07-23T03:04:44.391Z,26.20
2018-07-23T03:07:12.036Z,27.60
2018-07-23T03:09:40.415Z,22.00
2018-07-23T03:12:08.056Z,24.20
2018-07-23T03:14:36.490Z,27.00
2018-07-23T03:17:06.245Z,28.40
2018-07-23T03:19:33.893Z,25.60
2018-07-23T03:22:01.875Z,25.00
2018-07-23T03:24:29.540Z,22.60
2018-07-23T03:26:57.184Z,24.20
2018-07-23T03:29:24.812Z,27.80
2018-07-23T03:31:53.419Z,27.00
2018-07-23T03:34:21.776Z,21.80
2018-07-23T03:36:49.404Z,23.60
2018-07-23T03:39:17.020Z,22.40
2018-07-23T03:41:44.939Z,25.00
2018-07-23T03:44:12.571Z,24.40
2018-07-23T03:46:40.191Z,26.40
2018-07-23T03:49:07.823Z,21.80
2018-07-23T03:51:35.756Z,24.00
2018-07-23T03:54:03.384Z,21.00
2018-07-23T03:56:31.584Z,21.20
2018-07-23T03:58:59.223Z,24.40
2018-07-23T04:01:27.205Z,22.00
2018-07-23T04:03:54.973Z,24.60
2018-07-23T04:06:22.592Z,27.80
2018-07-23T04:08:50.233Z,26.20
2018-07-23T04:11:18.167Z,22.40
2018-07-23T04:13:45.775Z,28.40
2018-07-23T04:16:14.232Z,24.00
2018-07-23T04:18:41.876Z,22.80
2018-07-23T04:21:10.544Z,20.00
2018-07-23T04:23:38.205Z,24.80
2018-07-23T04:26:06.799Z,26.20
2018-07-23T04:28:34.445Z,26.20
2018-07-23T04:31:02.394Z,25.00
2018-07-23T04:33:31.720Z,27.60
2018-07-23T04:35:59.376Z,23.80
2018-07-23T04:38:28.696Z,25.40
2018-07-23T04:40:57.880Z,25.80
2018-07-23T04:43:26.361Z,28.80
2018-07-23T04:45:53.999Z,27.60
2018-07-23T04:48:22.000Z,29.40
2018-07-23T04:50:49.621Z,27.40
2018-07-23T04:53:17.285Z,24.80
2018-07-23T04:55:44.922Z,28.40
2018-07-23T04:58:12.596Z,23.60
2018-07-23T05:00:40.312Z,31.00
2018-07-23T05:03:08.255Z,30.40
2018-07-23T05:05:35.915Z,30.20
2018-07-23T05:08:03.511Z,22.00
2018-07-23T05:10:31.155Z,25.00
2018-07-23T05:12:59.071Z,21.00
2018-07-23T05:15:26.687Z,22.80
2018-07-23T05:17:54.296Z,24.20
2018-07-23T05:20:22.183Z,25.80
2018-07-23T05:22:49.815Z,26.20
2018-07-23T05:25:17.516Z,26.60
2018-07-23T05:27:45.192Z,28.20
2018-07-23T05:30:12.810Z,27.80
2018-07-23T05:32:40.719Z,21.40
2018-07-23T05:35:09.282Z,22.20
2018-07-23T05:37:36.911Z,27.60
2018-07-23T05:40:06.360Z,28.60
2018-07-23T05:42:34.007Z,33.80
2018-07-23T05:45:01.702Z,28.80
2018-07-23T05:47:29.611Z,30.40
2018-07-23T05:49:58.924Z,34.80
2018-07-23T05:52:26.606Z,27.00
2018-07-23T05:54:54.572Z,31.00
2018-07-23T05:57:22.199Z,30.00
2018-07-23T05:59:49.968Z,26.20
2018-07-23T06:02:17.917Z,23.00
2018-07-23T06:04:45.542Z,25.80
2018-07-23T06:07:15.392Z,22.40
2018-07-23T06:09:45.252Z,24.60
2018-07-23T06:12:13.915Z,27.60
2018-07-23T06:14:41.549Z,25.20
2018-07-23T06:17:09.485Z,25.40
2018-07-23T06:19:37.217Z,24.00
2018-07-23T06:22:04.864Z,26.20
2018-07-23T06:24:32.794Z,34.40
2018-07-23T06:27:00.407Z,26.80
2018-07-23T06:29:28.615Z,26.20
2018-07-23T06:31:56.588Z,22.60
2018-07-23T06:34:24.233Z,28.20
2018-07-23T06:36:52.497Z,26.60
2018-07-23T06:39:20.404Z,27.60
2018-07-23T06:41:49.431Z,27.20
2018-07-23T06:44:17.076Z,19.60
2018-07-23T06:46:45.109Z,23.20
2018-07-23T06:49:12.758Z,23.00
2018-07-23T06:51:40.404Z,26.20
2018-07-23T06:54:08.356Z,26.40
2018-07-23T06:56:35.976Z,23.60
2018-07-23T06:59:03.627Z,22.80
2018-07-23T07:01:31.532Z,21.40
2018-07-23T07:04:00.075Z,21.00
2018-07-23T07:06:27.775Z,20.80
2018-07-23T07:08:55.635Z,21.80
2018-07-23T07:11:23.587Z,16.60
2018-07-23T07:13:51.211Z,17.80
2018-07-23T07:16:19.207Z,18.00
2018-07-23T07:18:46.874Z,18.20
2018-07-23T07:21:14.523Z,15.60
2018-07-23T07:23:45.531Z,9.00
2018-07-23T07:26:13.187Z,12.80
2018-07-23T07:28:40.823Z,14.00
2018-07-23T07:31:08.722Z,13.80
2018-07-23T07:33:37.009Z,14.00
2018-07-23T07:36:04.679Z,14.60
2018-07-23T07:38:32.581Z,13.80
2018-07-23T07:41:03.476Z,13.60
2018-07-23T07:43:31.094Z,17.20
2018-07-23T07:46:00.444Z,17.00
2018-07-23T07:48:31.139Z,10.40
2018-07-23T07:50:59.308Z,15.00
2018-07-23T07:53:27.228Z,15.20
2018-07-23T07:55:57.348Z,14.00
2018-07-23T07:58:26.448Z,11.40
2018-07-23T08:00:54.350Z,11.00
2018-07-23T08:03:21.952Z,13.80
2018-07-23T08:05:49.584Z,13.20
2018-07-23T08:08:18.147Z,9.60
2018-07-23T08:10:45.752Z,13.80
2018-07-23T08:13:13.959Z,11.80
2018-07-23T08:15:43.075Z,10.20
2018-07-23T08:18:10.720Z,9.00
2018-07-23T08:20:38.350Z,12.60
2018-07-23T08:23:06.310Z,14.40
2018-07-23T08:25:33.992Z,10.00
2018-07-23T08:28:01.670Z,12.00
2018-07-23T08:30:31.321Z,12.00
2018-07-23T08:33:00.532Z,14.00
2018-07-23T08:35:28.990Z,11.80
2018-07-23T08:37:57.032Z,11.40
2018-07-23T08:40:24.663Z,13.00
2018-07-23T08:42:54.391Z,13.40
2018-07-23T08:45:22.555Z,12.40
2018-07-23T08:47:51.337Z,12.40
2018-07-23T08:50:19.899Z,12.80
2018-07-23T08:52:50.606Z,11.20
2018-07-23T08:55:20.428Z,11.40
2018-07-23T08:57:49.263Z,11.00
2018-07-23T09:00:17.165Z,12.00
2018-07-23T09:02:44.765Z,7.00
2018-07-23T09:05:12.388Z,10.60
2018-07-23T09:07:40.564Z,11.60
2018-07-23T09:10:10.264Z,11.60
2018-07-23T09:12:39.491Z,6.60
2018-07-23T09:15:09.692Z,12.60
2018-07-23T09:17:37.712Z,12.20
2018-07-23T09:20:05.488Z,10.00
2018-07-23T09:22:33.720Z,10.80
2018-07-23T09:25:01.703Z,12.20
2018-07-23T09:27:30.436Z,7.00
2018-07-23T09:30:01.312Z,14.20
2018-07-23T09:32:30.578Z,13.40
2018-07-23T09:34:59.642Z,11.40
2018-07-23T09:37:27.562Z,9.00
2018-07-23T09:39:56.268Z,8.20
2018-07-23T09:42:24.373Z,12.40
2018-07-23T09:44:52.292Z,12.40
2018-07-23T09:47:20.882Z,13.20
2018-07-23T09:49:48.515Z,14.00
2018-07-23T09:52:16.464Z,14.00
2018-07-23T09:54:44.230Z,15.00
2018-07-23T09:57:11.876Z,12.60
2018-07-23T09:59:39.794Z,14.60
2018-07-23T10:02:07.460Z,13.60
2018-07-23T10:04:35.766Z,11.20
2018-07-23T10:07:03.691Z,14.80
2018-07-23T10:09:31.339Z,14.60
2018-07-23T10:11:58.954Z,14.00
2018-07-23T10:14:26.859Z,10.20
2018-07-23T10:16:55.458Z,13.60
2018-07-23T10:19:23.075Z,13.80
2018-07-23T10:21:50.986Z,15.40
2018-07-23T10:24:19.299Z,11.40
2018-07-23T10:26:46.898Z,11.60
2018-07-23T10:29:14.511Z,11.80
2018-07-23T10:31:42.124Z,11.80
2018-07-23T10:34:10.020Z,12.20
2018-07-23T10:36:38.363Z,11.40
2018-07-23T10:39:07.729Z,11.00
2018-07-23T10:41:35.687Z,15.80
2018-07-23T10:44:03.452Z,12.40
2018-07-23T10:46:32.655Z,14.40
2018-07-23T10:49:00.617Z,10.60
2018-07-23T10:51:28.266Z,12.60
2018-07-23T10:53:57.354Z,13.00
2018-07-23T10:56:25.303Z,13.80
2018-07-23T10:58:53.663Z,11.60
2018-07-23T11:01:23.197Z,10.80
2018-07-23T11:03:57.472Z,12.20
2018-07-23T11:06:27.300Z,10.80
2018-07-23T11:08:54.934Z,8.20
2018-07-23T11:11:22.828Z,8.80
2018-07-23T11:13:51.384Z,11.60
2018-07-23T11:16:19.856Z,9.60
2018-07-23T11:18:48.709Z,9.80
2018-07-23T11:21:16.318Z,14.00
2018-07-23T11:23:45.288Z,12.60
2018-07-23T11:26:13.235Z,11.20
2018-07-23T11:28:41.669Z,11.80
2018-07-23T11:31:09.481Z,10.40
2018-07-23T11:33:38.645Z,10.20
2018-07-23T11:36:06.510Z,12.20
2018-07-23T11:38:34.935Z,13.20
2018-07-23T11:43:37.707Z,12.40
2018-07-23T11:46:05.786Z,11.80
2018-07-23T11:48:34.609Z,15.20
2018-07-23T11:51:03.117Z,14.40
2018-07-23T11:53:31.080Z,13.80
2018-07-23T11:55:58.686Z,12.00
2018-07-23T11:58:26.500Z,10.60
2018-07-23T12:00:58.170Z,12.40
2018-07-23T12:03:29.446Z,11.60
2018-07-23T12:05:58.140Z,13.00
2018-07-23T12:08:25.770Z,12.40
2018-07-23T12:10:53.406Z,15.20
2018-07-23T12:13:21.311Z,13.40
2018-07-23T12:15:48.954Z,14.00
2018-07-23T12:18:16.619Z,14.40
2018-07-23T12:20:45.115Z,16.20
2018-07-23T12:23:14.381Z,15.20
2018-07-23T12:25:42.881Z,17.80
2018-07-23T12:28:10.836Z,12.40
2018-07-23T12:30:39.311Z,13.20
2018-07-23T12:33:07.660Z,13.80
2018-07-23T12:35:37.299Z,12.00
2018-07-23T12:38:05.598Z,14.00
2018-07-23T12:40:34.997Z,16.00
2018-07-23T12:43:02.916Z,15.00
2018-07-23T12:45:30.557Z,14.40
2018-07-23T12:47:58.161Z,16.80
2018-07-23T12:50:26.048Z,15.80
2018-07-23T12:52:53.667Z,15.20
2018-07-23T12:55:21.572Z,17.00
2018-07-23T12:57:52.385Z,15.00
2018-07-23T13:00:20.962Z,14.40
2018-07-23T13:02:48.631Z,14.80
2018-07-23T13:05:16.513Z,17.20
2018-07-23T13:07:44.199Z,15.60
2018-07-23T13:10:11.832Z,16.40
2018-07-23T13:12:39.702Z,16.20
2018-07-23T13:15:08.394Z,14.00
2018-07-23T13:17:36.662Z,16.20
2018-07-23T13:20:04.599Z,16.20
2018-07-23T13:22:32.225Z,15.40
2018-07-23T13:24:59.869Z,16.00
2018-07-23T13:27:28.576Z,15.00
2018-07-23T13:29:56.739Z,13.60
2018-07-23T13:32:24.475Z,14.60
2018-07-23T13:34:52.396Z,14.40
2018-07-23T13:37:20.107Z,13.40
2018-07-23T13:39:47.752Z,15.80
2018-07-23T13:42:16.278Z,16.40
2018-07-23T13:44:44.632Z,16.20
2018-07-23T13:47:12.294Z,13.60
2018-07-23T13:49:40.287Z,15.80
2018-07-23T13:52:07.987Z,15.40
2018-07-23T13:54:35.735Z,16.40
2018-07-23T13:57:03.698Z,12.80
2018-07-23T13:59:31.638Z,20.20
2018-07-23T14:01:59.316Z,10.20
2018-07-23T14:04:27.289Z,15.20
2018-07-23T14:06:56.122Z,16.00
2018-07-23T14:09:26.492Z,18.40
2018-07-23T14:11:54.476Z,15.40
2018-07-23T14:14:22.827Z,16.80
2018-07-23T14:16:51.299Z,14.00
2018-07-23T14:19:19.289Z,17.40
2018-07-23T14:21:46.912Z,14.60
2018-07-23T14:24:14.562Z,19.00
2018-07-23T14:26:42.446Z,17.80
2018-07-23T14:29:10.088Z,17.80
2018-07-23T14:31:37.725Z,20.00
2018-07-23T14:34:05.622Z,24.60
2018-07-23T14:36:33.300Z,20.40
2018-07-23T14:39:01.733Z,19.60
2018-07-23T14:41:29.656Z,20.60
2018-07-23T14:43:57.414Z,24.00
2018-07-23T14:46:26.375Z,24.80
2018-07-23T14:48:55.660Z,22.80
2018-07-23T14:51:23.506Z,20.60
2018-07-23T14:53:51.176Z,22.00
2018-07-23T14:56:19.090Z,21.00
2018-07-23T14:58:46.724Z,22.80
2018-07-23T15:01:15.611Z,21.60
2018-07-23T15:03:43.576Z,18.60
2018-07-23T15:06:11.335Z,17.20
2018-07-23T15:08:40.639Z,19.40
2018-07-23T15:11:08.590Z,20.20
2018-07-23T15:13:37.355Z,18.80
2018-07-23T15:16:05.055Z,20.80
2018-07-23T15:18:34.650Z,20.00
2018-07-23T15:21:02.747Z,18.00
2018-07-23T15:23:31.227Z,19.60
2018-07-23T15:26:00.168Z,17.60
2018-07-23T15:28:30.863Z,18.80
2018-07-23T15:31:01.668Z,19.60
2018-07-23T15:33:31.269Z,18.20
2018-07-23T15:35:59.162Z,17.20
2018-07-23T15:38:29.072Z,17.80
2018-07-23T15:40:58.299Z,18.40
2018-07-23T15:43:27.440Z,20.00
2018-07-23T15:45:55.143Z,19.20
2018-07-23T15:48:23.659Z,16.60
2018-07-23T15:50:51.302Z,18.40
2018-07-23T15:53:20.336Z,21.00
2018-07-23T15:55:48.344Z,21.80
2018-07-23T15:58:17.961Z,17.60
2018-07-23T16:00:51.958Z,21.60
2018-07-23T16:03:20.591Z,21.20
2018-07-23T16:05:50.482Z,21.80
2018-07-23T16:08:18.174Z,23.60
2018-07-23T16:10:47.245Z,20.80
2018-07-23T16:13:14.976Z,19.80
2018-07-23T16:15:45.262Z,23.20
2018-07-23T16:18:13.418Z,23.60
2018-07-23T16:20:41.128Z,21.80
2018-07-23T16:23:10.262Z,19.40
2018-07-23T16:25:38.265Z,19.40
2018-07-23T16:28:05.972Z,22.20
2018-07-23T16:30:33.652Z,19.20
2018-07-23T16:33:01.639Z,19.40
2018-07-23T16:35:29.353Z,20.20
2018-07-23T16:37:57.087Z,19.40
2018-07-23T16:40:26.456Z,22.00
2018-07-23T16:42:54.162Z,19.60
2018-07-23T16:45:21.871Z,20.00
2018-07-23T16:47:49.975Z,21.40
2018-07-23T16:50:17.694Z,18.40
2018-07-23T16:52:45.778Z,20.80
2018-07-23T16:55:13.879Z,22.00
2018-07-23T16:57:41.633Z,19.00
2018-07-23T17:00:10.379Z,19.20
2018-07-23T17:02:39.945Z,20.60
2018-07-23T17:05:07.626Z,21.00
2018-07-23T17:07:35.327Z,23.00
2018-07-23T17:10:04.999Z,20.00
2018-07-23T17:12:32.686Z,21.60
2018-07-23T17:15:00.368Z,23.00
2018-07-23T17:17:29.903Z,23.20
2018-07-23T17:19:57.691Z,22.00
2018-07-23T17:22:25.459Z,22.40
2018-07-23T17:24:53.456Z,20.80
2018-07-23T17:27:21.142Z,21.60
2018-07-23T17:29:48.896Z,18.80
2018-07-23T17:32:16.850Z,20.20
2018-07-23T17:34:44.530Z,18.60
2018-07-23T17:37:12.242Z,17.40
2018-07-23T17:39:41.840Z,21.20
2018-07-23T17:42:09.567Z,21.80
2018-07-23T17:44:38.309Z,19.80
2018-07-23T17:47:06.307Z,17.20
2018-07-23T17:49:34.007Z,17.40
2018-07-23T17:52:01.722Z,17.80
2018-07-23T17:54:31.258Z,17.00
2018-07-23T17:57:00.633Z,15.80
2018-07-23T17:59:28.351Z,17.80
2018-07-23T18:01:58.629Z,17.80
2018-07-23T18:04:29.443Z,16.80
2018-07-23T18:06:57.672Z,18.20
2018-07-23T18:09:25.899Z,20.00
2018-07-23T18:11:54.561Z,20.00
2018-07-23T18:14:22.271Z,17.00
2018-07-23T18:16:50.278Z,21.00
2018-07-23T18:19:18.905Z,18.20
2018-07-23T18:21:46.654Z,17.80
2018-07-23T18:24:15.277Z,18.60
2018-07-23T18:26:43.802Z,20.40
2018-07-23T18:29:12.302Z,19.20
2018-07-23T18:31:40.702Z,20.40
2018-07-23T18:34:09.423Z,17.40
2018-07-23T18:36:37.507Z,20.60
2018-07-23T18:39:06.186Z,16.40
2018-07-23T18:41:34.666Z,21.60
2018-07-23T18:44:09.488Z,19.40
2018-07-23T18:46:37.259Z,19.40
2018-07-23T18:54:25.675Z,19.60
2018-07-23T18:56:55.447Z,21.80
2018-07-23T18:59:23.147Z,21.40
2018-07-23T19:01:52.124Z,19.20
2018-07-23T19:04:19.856Z,19.80
2018-07-23T19:06:51.778Z,20.60
2018-07-23T19:09:25.890Z,20.60
2018-07-23T19:11:54.575Z,21.60
2018-07-23T19:14:22.835Z,24.80
2018-07-23T19:16:51.702Z,24.00
2018-07-23T19:19:19.399Z,23.60
2018-07-23T19:24:33.931Z,24.60
2018-07-23T19:27:01.674Z,26.40
2018-07-23T19:29:30.396Z,24.40
2018-07-23T19:31:58.398Z,22.00
2018-07-23T19:34:26.111Z,25.00
2018-07-23T19:36:53.813Z,23.60
2018-07-23T19:39:22.599Z,25.80
2018-07-23T19:41:51.003Z,26.40
2018-07-23T19:44:20.246Z,26.60
2018-07-23T19:46:48.219Z,30.80
2018-07-23T19:49:15.970Z,27.80
2018-07-23T19:51:43.678Z,29.40
2018-07-23T19:54:16.558Z,25.20
2018-07-23T19:56:45.432Z,29.40
2018-07-23T19:59:13.762Z,29.60
2018-07-23T20:01:43.759Z,30.60
2018-07-23T20:04:11.475Z,35.40
2018-07-23T20:06:43.047Z,34.60
2018-07-23T20:09:11.310Z,27.60
2018-07-23T20:11:39.819Z,27.20
2018-07-23T20:14:08.470Z,32.80
2018-07-23T20:16:39.977Z,31.60
2018-07-23T20:19:08.801Z,35.40
2018-07-23T20:21:40.183Z,38.00
2018-07-23T20:24:08.731Z,34.80
2018-07-23T20:26:36.682Z,32.20
2018-07-23T20:29:06.183Z,32.60
2018-07-23T20:31:34.718Z,34.40
2018-07-23T20:34:02.468Z,31.20
2018-07-23T20:36:30.422Z,33.60
2018-07-23T20:38:58.215Z,27.40
2018-07-23T20:41:26.743Z,29.60
2018-07-23T20:43:56.542Z,30.20
2018-07-23T20:46:25.099Z,26.00
2018-07-23T20:48:52.822Z,28.80
2018-07-23T20:51:21.722Z,28.20
2018-07-23T20:53:52.004Z,30.60
2018-07-23T20:56:19.737Z,27.60
2018-07-23T20:58:49.211Z,29.00
2018-07-23T21:01:16.918Z,25.00
2018-07-23T21:03:44.642Z,29.00
2018-07-23T21:06:13.027Z,32.20
2018-07-23T21:08:42.377Z,28.20
2018-07-23T21:11:11.331Z,26.40
2018-07-23T21:13:39.560Z,28.80
2018-07-23T21:16:08.755Z,30.20
2018-07-23T21:18:37.155Z,31.60
2018-07-23T21:21:04.778Z,25.40
2018-07-23T21:23:33.244Z,28.00
2018-07-23T21:26:02.299Z,29.40
2018-07-23T21:28:32.590Z,32.40
2018-07-23T21:31:00.283Z,29.20
2018-07-23T21:33:29.920Z,33.60
2018-07-23T21:35:57.618Z,32.80
2018-07-23T21:38:25.624Z,30.80
2018-07-23T21:40:54.290Z,30.40
2018-07-23T21:43:23.639Z,30.00
2018-07-23T21:45:51.610Z,24.60
2018-07-23T21:48:20.461Z,30.00
2018-07-23T21:50:48.154Z,31.60
2018-07-23T21:53:17.722Z,26.00
2018-07-23T21:55:46.538Z,32.60
2018-07-23T21:58:14.238Z,34.00
2018-07-23T22:00:41.964Z,28.00
2018-07-23T22:03:09.756Z,32.20
2018-07-23T22:05:37.534Z,26.40
2018-07-23T22:08:05.506Z,32.80
2018-07-23T22:10:33.215Z,33.80
2018-07-23T22:13:00.989Z,33.60
2018-07-23T22:15:28.672Z,38.00
2018-07-23T22:17:56.657Z,30.80
2018-07-23T22:20:24.498Z,38.00
2018-07-23T22:22:52.847Z,31.60
2018-07-23T22:25:20.600Z,33.80
2018-07-23T22:27:48.600Z,34.60
2018-07-23T22:30:18.727Z,31.60
2018-07-23T22:32:46.467Z,32.80
2018-07-23T22:35:14.566Z,34.80
2018-07-23T22:37:42.260Z,35.80
2018-07-23T22:40:09.962Z,36.80
2018-07-23T22:42:38.146Z,34.00
2018-07-23T22:45:07.016Z,34.80
2018-07-23T22:47:34.722Z,39.80
2018-07-23T22:50:03.023Z,34.80
2018-07-23T22:52:32.180Z,34.60
2018-07-23T22:54:59.854Z,32.20
2018-07-23T22:57:29.530Z,37.80
2018-07-23T22:59:57.218Z,34.80
2018-07-23T23:02:25.496Z,38.80
2018-07-23T23:04:54.439Z,34.40
2018-07-23T23:07:22.127Z,32.60
2018-07-23T23:09:51.566Z,38.80
2018-07-23T23:12:22.663Z,37.80
2018-07-23T23:14:51.743Z,39.80
2018-07-23T23:17:22.905Z,34.40
2018-07-23T23:19:50.583Z,39.00
2018-07-23T23:22:18.272Z,35.00
2018-07-23T23:24:46.248Z,36.60
2018-07-23T23:27:13.958Z,37.00
2018-07-23T23:29:41.639Z,33.80
2018-07-23T23:32:09.602Z,36.40
2018-07-23T23:34:37.340Z,36.80
2018-07-23T23:37:06.483Z,35.60
2018-07-23T23:39:34.178Z,37.60
2018-07-23T23:42:03.849Z,41.40
2018-07-23T23:44:31.868Z,38.00
2018-07-23T23:46:59.607Z,40.60
2018-07-23T23:49:27.605Z,38.40
2018-07-23T23:51:55.310Z,38.20
2018-07-23T23:54:23.066Z,36.80
2018-07-23T23:56:50.779Z,37.60
2018-07-23T23:59:19.678Z,35.40
